sensor_id;sensor_type;location;lat;lon;timestamp;temperature;humidity
77741;DHT22;66919;51.006;4.630;2024-03-02T00:00:19;7.00;92.00
77741;DHT22;66919;51.006;4.630;2024-03-02T00:02:50;7.10;92.30
77741;DHT22;66919;51.006;4.630;2024-03-02T00:05:20;7.20;92.10
77741;DHT22;66919;51.006;4.630;2024-03-02T00:07:52;7.20;91.80
77741;DHT22;66919;51.006;4.630;2024-03-02T00:10:38;7.10;91.60
77741;DHT22;66919;51.006;4.630;2024-03-02T00:13:08;7.20;91.40
77741;DHT22;66919;51.006;4.630;2024-03-02T00:18:14;7.10;91.00
77741;DHT22;66919;51.006;4.630;2024-03-02T00:20:40;6.90;91.80
77741;DHT22;66919;51.006;4.630;2024-03-02T00:23:07;7.00;91.70
77741;DHT22;66919;51.006;4.630;2024-03-02T00:25:38;7.00;91.80
77741;DHT22;66919;51.006;4.630;2024-03-02T00:28:05;7.00;91.60
77741;DHT22;66919;51.006;4.630;2024-03-02T00:30:52;6.90;91.80
77741;DHT22;66919;51.006;4.630;2024-03-02T00:33:21;6.80;92.00
77741;DHT22;66919;51.006;4.630;2024-03-02T00:35:47;6.80;92.00
77741;DHT22;66919;51.006;4.630;2024-03-02T00:38:14;6.80;92.00
77741;DHT22;66919;51.006;4.630;2024-03-02T00:40:41;6.80;92.10
77741;DHT22;66919;51.006;4.630;2024-03-02T00:43:35;6.90;91.90
77741;DHT22;66919;51.006;4.630;2024-03-02T00:46:04;6.90;91.50
77741;DHT22;66919;51.006;4.630;2024-03-02T00:48:30;6.80;91.80
77741;DHT22;66919;51.006;4.630;2024-03-02T00:51:02;6.80;91.50
77741;DHT22;66919;51.006;4.630;2024-03-02T00:53:29;6.80;91.70
77741;DHT22;66919;51.006;4.630;2024-03-02T00:55:56;6.80;91.80
77741;DHT22;66919;51.006;4.630;2024-03-02T00:58:22;6.80;91.90
77741;DHT22;66919;51.006;4.630;2024-03-02T01:00:47;6.80;92.10
77741;DHT22;66919;51.006;4.630;2024-03-02T01:03:13;6.90;91.70
77741;DHT22;66919;51.006;4.630;2024-03-02T01:05:42;6.80;92.00
77741;DHT22;66919;51.006;4.630;2024-03-02T01:08:09;6.80;91.70
77741;DHT22;66919;51.006;4.630;2024-03-02T01:10:34;6.80;92.10
77741;DHT22;66919;51.006;4.630;2024-03-02T01:13:00;6.90;91.50
77741;DHT22;66919;51.006;4.630;2024-03-02T01:15:26;7.00;91.10
77741;DHT22;66919;51.006;4.630;2024-03-02T01:17:51;7.00;90.90
77741;DHT22;66919;51.006;4.630;2024-03-02T01:20:17;7.10;91.00
77741;DHT22;66919;51.006;4.630;2024-03-02T01:22:43;7.00;90.80
77741;DHT22;66919;51.006;4.630;2024-03-02T01:25:09;7.00;90.80
77741;DHT22;66919;51.006;4.630;2024-03-02T01:27:34;7.00;90.90
77741;DHT22;66919;51.006;4.630;2024-03-02T01:30:00;7.00;90.80
77741;DHT22;66919;51.006;4.630;2024-03-02T01:32:25;6.90;90.90
77741;DHT22;66919;51.006;4.630;2024-03-02T01:34:51;7.00;90.90
77741;DHT22;66919;51.006;4.630;2024-03-02T01:37:17;7.00;90.70
77741;DHT22;66919;51.006;4.630;2024-03-02T01:39:42;7.10;90.80
77741;DHT22;66919;51.006;4.630;2024-03-02T01:42:08;7.00;90.80
77741;DHT22;66919;51.006;4.630;2024-03-02T01:44:33;7.00;90.50
77741;DHT22;66919;51.006;4.630;2024-03-02T01:46:59;7.00;90.60
77741;DHT22;66919;51.006;4.630;2024-03-02T01:49:25;7.00;90.80
77741;DHT22;66919;51.006;4.630;2024-03-02T01:51:50;7.00;90.70
77741;DHT22;66919;51.006;4.630;2024-03-02T01:54:16;7.00;90.80
77741;DHT22;66919;51.006;4.630;2024-03-02T01:56:42;6.90;90.80
77741;DHT22;66919;51.006;4.630;2024-03-02T01:59:08;6.80;90.90
77741;DHT22;66919;51.006;4.630;2024-03-02T02:01:33;6.90;90.90
77741;DHT22;66919;51.006;4.630;2024-03-02T02:03:59;6.80;90.80
77741;DHT22;66919;51.006;4.630;2024-03-02T02:06:25;6.80;90.50
77741;DHT22;66919;51.006;4.630;2024-03-02T02:08:51;6.80;90.40
77741;DHT22;66919;51.006;4.630;2024-03-02T02:11:17;6.80;90.60
77741;DHT22;66919;51.006;4.630;2024-03-02T02:13:43;6.80;90.40
77741;DHT22;66919;51.006;4.630;2024-03-02T02:16:08;6.90;90.00
77741;DHT22;66919;51.006;4.630;2024-03-02T02:18:35;7.00;90.00
77741;DHT22;66919;51.006;4.630;2024-03-02T02:21:01;7.00;90.00
77741;DHT22;66919;51.006;4.630;2024-03-02T02:23:27;7.00;90.10
77741;DHT22;66919;51.006;4.630;2024-03-02T02:25:53;6.90;90.10
77741;DHT22;66919;51.006;4.630;2024-03-02T02:28:19;6.90;90.20
77741;DHT22;66919;51.006;4.630;2024-03-02T02:30:44;7.00;89.40
77741;DHT22;66919;51.006;4.630;2024-03-02T02:33:10;7.00;89.40
77741;DHT22;66919;51.006;4.630;2024-03-02T02:35:35;7.10;89.00
77741;DHT22;66919;51.006;4.630;2024-03-02T02:38:02;7.10;88.80
77741;DHT22;66919;51.006;4.630;2024-03-02T02:40:28;7.20;88.30
77741;DHT22;66919;51.006;4.630;2024-03-02T02:42:57;7.10;87.80
77741;DHT22;66919;51.006;4.630;2024-03-02T02:45:24;7.10;88.40
77741;DHT22;66919;51.006;4.630;2024-03-02T02:47:50;7.10;87.50
77741;DHT22;66919;51.006;4.630;2024-03-02T02:50:15;7.00;87.90
77741;DHT22;66919;51.006;4.630;2024-03-02T02:52:42;7.00;87.50
77741;DHT22;66919;51.006;4.630;2024-03-02T02:55:09;7.10;87.80
77741;DHT22;66919;51.006;4.630;2024-03-02T02:57:37;7.20;87.00
77741;DHT22;66919;51.006;4.630;2024-03-02T03:00:10;7.30;85.90
77741;DHT22;66919;51.006;4.630;2024-03-02T03:02:43;7.30;85.50
77741;DHT22;66919;51.006;4.630;2024-03-02T03:05:10;7.30;85.60
77741;DHT22;66919;51.006;4.630;2024-03-02T03:07:36;7.20;85.60
77741;DHT22;66919;51.006;4.630;2024-03-02T03:10:02;7.20;86.00
77741;DHT22;66919;51.006;4.630;2024-03-02T03:12:29;7.20;84.70
77741;DHT22;66919;51.006;4.630;2024-03-02T03:14:55;7.20;85.40
77741;DHT22;66919;51.006;4.630;2024-03-02T03:17:24;7.20;85.10
77741;DHT22;66919;51.006;4.630;2024-03-02T03:19:50;7.10;85.70
77741;DHT22;66919;51.006;4.630;2024-03-02T03:22:16;7.00;86.60
77741;DHT22;66919;51.006;4.630;2024-03-02T03:24:42;7.00;86.60
77741;DHT22;66919;51.006;4.630;2024-03-02T03:27:07;7.00;86.30
77741;DHT22;66919;51.006;4.630;2024-03-02T03:29:33;7.00;85.80
77741;DHT22;66919;51.006;4.630;2024-03-02T03:31:59;6.90;86.40
77741;DHT22;66919;51.006;4.630;2024-03-02T03:34:24;6.80;86.80
77741;DHT22;66919;51.006;4.630;2024-03-02T03:36:50;6.80;86.60
77741;DHT22;66919;51.006;4.630;2024-03-02T03:39:15;6.80;86.50
77741;DHT22;66919;51.006;4.630;2024-03-02T03:41:41;6.60;87.60
77741;DHT22;66919;51.006;4.630;2024-03-02T03:44:07;6.40;88.60
77741;DHT22;66919;51.006;4.630;2024-03-02T03:46:32;6.40;88.90
77741;DHT22;66919;51.006;4.630;2024-03-02T03:48:58;6.30;89.30
77741;DHT22;66919;51.006;4.630;2024-03-02T03:51:23;6.30;88.90
77741;DHT22;66919;51.006;4.630;2024-03-02T03:53:49;6.20;89.40
77741;DHT22;66919;51.006;4.630;2024-03-02T03:56:15;6.20;89.80
77741;DHT22;66919;51.006;4.630;2024-03-02T03:58:40;6.20;89.60
77741;DHT22;66919;51.006;4.630;2024-03-02T04:01:06;6.30;89.30
77741;DHT22;66919;51.006;4.630;2024-03-02T04:03:31;6.20;89.10
77741;DHT22;66919;51.006;4.630;2024-03-02T04:05:57;6.10;89.60
77741;DHT22;66919;51.006;4.630;2024-03-02T04:08:23;6.10;90.00
77741;DHT22;66919;51.006;4.630;2024-03-02T04:10:48;6.00;90.10
77741;DHT22;66919;51.006;4.630;2024-03-02T04:13:14;6.00;90.20
77741;DHT22;66919;51.006;4.630;2024-03-02T04:15:40;6.00;90.10
77741;DHT22;66919;51.006;4.630;2024-03-02T04:18:08;6.00;90.30
77741;DHT22;66919;51.006;4.630;2024-03-02T04:20:34;6.00;90.30
77741;DHT22;66919;51.006;4.630;2024-03-02T04:22:59;6.00;90.30
77741;DHT22;66919;51.006;4.630;2024-03-02T04:25:25;6.00;90.40
77741;DHT22;66919;51.006;4.630;2024-03-02T04:27:51;6.00;90.40
77741;DHT22;66919;51.006;4.630;2024-03-02T04:30:16;5.90;90.40
77741;DHT22;66919;51.006;4.630;2024-03-02T04:32:42;5.90;90.60
77741;DHT22;66919;51.006;4.630;2024-03-02T04:35:11;5.90;90.60
77741;DHT22;66919;51.006;4.630;2024-03-02T04:37:38;5.90;90.60
77741;DHT22;66919;51.006;4.630;2024-03-02T04:40:04;5.80;90.70
77741;DHT22;66919;51.006;4.630;2024-03-02T04:42:33;5.80;90.60
77741;DHT22;66919;51.006;4.630;2024-03-02T04:44:59;5.70;90.80
77741;DHT22;66919;51.006;4.630;2024-03-02T04:47:24;5.70;90.80
77741;DHT22;66919;51.006;4.630;2024-03-02T04:49:50;5.80;90.60
77741;DHT22;66919;51.006;4.630;2024-03-02T04:52:16;5.90;90.20
77741;DHT22;66919;51.006;4.630;2024-03-02T04:54:42;6.00;90.20
77741;DHT22;66919;51.006;4.630;2024-03-02T04:57:26;6.10;89.70
77741;DHT22;66919;51.006;4.630;2024-03-02T04:59:52;6.00;89.90
77741;DHT22;66919;51.006;4.630;2024-03-02T05:02:18;6.00;90.00
77741;DHT22;66919;51.006;4.630;2024-03-02T05:04:43;6.10;89.50
77741;DHT22;66919;51.006;4.630;2024-03-02T05:07:09;6.00;89.70
77741;DHT22;66919;51.006;4.630;2024-03-02T05:09:35;6.10;89.40
77741;DHT22;66919;51.006;4.630;2024-03-02T05:12:00;6.10;89.50
77741;DHT22;66919;51.006;4.630;2024-03-02T05:14:45;6.00;89.60
77741;DHT22;66919;51.006;4.630;2024-03-02T05:17:11;6.00;89.80
77741;DHT22;66919;51.006;4.630;2024-03-02T05:19:36;5.80;90.00
77741;DHT22;66919;51.006;4.630;2024-03-02T05:22:02;5.70;90.40
77741;DHT22;66919;51.006;4.630;2024-03-02T05:24:28;5.90;90.00
77741;DHT22;66919;51.006;4.630;2024-03-02T05:26:54;6.00;89.30
77741;DHT22;66919;51.006;4.630;2024-03-02T05:29:20;6.00;89.30
77741;DHT22;66919;51.006;4.630;2024-03-02T05:31:46;5.90;89.80
77741;DHT22;66919;51.006;4.630;2024-03-02T05:34:11;5.60;90.30
77741;DHT22;66919;51.006;4.630;2024-03-02T05:36:37;5.60;90.60
77741;DHT22;66919;51.006;4.630;2024-03-02T05:39:04;5.50;90.80
77741;DHT22;66919;51.006;4.630;2024-03-02T05:41:32;5.40;91.10
77741;DHT22;66919;51.006;4.630;2024-03-02T05:43:57;5.50;90.90
77741;DHT22;66919;51.006;4.630;2024-03-02T05:46:24;5.40;91.30
77741;DHT22;66919;51.006;4.630;2024-03-02T05:48:50;5.30;91.30
77741;DHT22;66919;51.006;4.630;2024-03-02T05:51:16;5.40;91.20
77741;DHT22;66919;51.006;4.630;2024-03-02T05:53:41;5.60;90.80
77741;DHT22;66919;51.006;4.630;2024-03-02T05:56:07;5.70;90.50
77741;DHT22;66919;51.006;4.630;2024-03-02T05:58:33;5.60;90.50
77741;DHT22;66919;51.006;4.630;2024-03-02T06:01:19;5.50;90.80
77741;DHT22;66919;51.006;4.630;2024-03-02T06:03:44;5.50;90.80
77741;DHT22;66919;51.006;4.630;2024-03-02T06:06:10;5.50;90.90
77741;DHT22;66919;51.006;4.630;2024-03-02T06:08:36;5.50;90.80
77741;DHT22;66919;51.006;4.630;2024-03-02T06:11:02;5.40;91.10
77741;DHT22;66919;51.006;4.630;2024-03-02T06:13:27;5.60;90.70
77741;DHT22;66919;51.006;4.630;2024-03-02T06:15:53;5.60;90.40
77741;DHT22;66919;51.006;4.630;2024-03-02T06:18:18;5.70;90.30
77741;DHT22;66919;51.006;4.630;2024-03-02T06:20:44;5.60;90.30
77741;DHT22;66919;51.006;4.630;2024-03-02T06:23:10;5.60;90.40
77741;DHT22;66919;51.006;4.630;2024-03-02T06:25:35;5.90;90.10
77741;DHT22;66919;51.006;4.630;2024-03-02T06:28:01;5.90;89.20
77741;DHT22;66919;51.006;4.630;2024-03-02T06:30:26;5.90;88.90
77741;DHT22;66919;51.006;4.630;2024-03-02T06:32:52;5.80;89.40
77741;DHT22;66919;51.006;4.630;2024-03-02T06:35:17;5.80;89.10
77741;DHT22;66919;51.006;4.630;2024-03-02T06:37:43;5.90;89.10
77741;DHT22;66919;51.006;4.630;2024-03-02T06:40:09;5.90;88.50
77741;DHT22;66919;51.006;4.630;2024-03-02T06:42:35;5.80;88.70
77741;DHT22;66919;51.006;4.630;2024-03-02T06:45:01;5.90;88.80
77741;DHT22;66919;51.006;4.630;2024-03-02T06:47:27;5.90;88.50
77741;DHT22;66919;51.006;4.630;2024-03-02T06:49:53;5.90;88.40
77741;DHT22;66919;51.006;4.630;2024-03-02T06:52:19;6.00;88.20
77741;DHT22;66919;51.006;4.630;2024-03-02T06:54:46;6.00;87.10
77741;DHT22;66919;51.006;4.630;2024-03-02T06:57:12;6.10;87.30
77741;DHT22;66919;51.006;4.630;2024-03-02T06:59:37;5.90;88.10
77741;DHT22;66919;51.006;4.630;2024-03-02T07:02:03;5.90;88.10
77741;DHT22;66919;51.006;4.630;2024-03-02T07:04:29;6.00;87.70
77741;DHT22;66919;51.006;4.630;2024-03-02T07:06:54;6.00;87.20
77741;DHT22;66919;51.006;4.630;2024-03-02T07:09:20;6.10;86.70
77741;DHT22;66919;51.006;4.630;2024-03-02T07:11:48;6.10;87.00
77741;DHT22;66919;51.006;4.630;2024-03-02T07:14:14;6.30;86.60
77741;DHT22;66919;51.006;4.630;2024-03-02T07:16:40;6.50;85.30
77741;DHT22;66919;51.006;4.630;2024-03-02T07:19:06;6.70;84.70
77741;DHT22;66919;51.006;4.630;2024-03-02T07:21:32;7.20;82.90
77741;DHT22;66919;51.006;4.630;2024-03-02T07:23:58;7.30;81.60
77741;DHT22;66919;51.006;4.630;2024-03-02T07:26:25;7.60;80.70
77741;DHT22;66919;51.006;4.630;2024-03-02T07:28:51;7.60;80.20
77741;DHT22;66919;51.006;4.630;2024-03-02T07:31:17;7.80;79.50
77741;DHT22;66919;51.006;4.630;2024-03-02T07:33:45;7.60;80.00
77741;DHT22;66919;51.006;4.630;2024-03-02T07:36:14;7.80;79.40
77741;DHT22;66919;51.006;4.630;2024-03-02T07:38:39;8.10;78.30
77741;DHT22;66919;51.006;4.630;2024-03-02T07:41:06;8.10;78.00
77741;DHT22;66919;51.006;4.630;2024-03-02T07:43:31;8.20;78.50
77741;DHT22;66919;51.006;4.630;2024-03-02T07:45:58;8.40;77.20
77741;DHT22;66919;51.006;4.630;2024-03-02T07:48:24;8.70;75.90
77741;DHT22;66919;51.006;4.630;2024-03-02T07:50:50;8.70;75.80
77741;DHT22;66919;51.006;4.630;2024-03-02T07:53:16;9.00;75.80
77741;DHT22;66919;51.006;4.630;2024-03-02T07:55:42;9.40;74.20
77741;DHT22;66919;51.006;4.630;2024-03-02T07:58:08;10.10;71.40
77741;DHT22;66919;51.006;4.630;2024-03-02T08:00:34;10.50;70.00
77741;DHT22;66919;51.006;4.630;2024-03-02T08:03:00;11.10;67.10
77741;DHT22;66919;51.006;4.630;2024-03-02T08:05:26;10.90;67.10
77741;DHT22;66919;51.006;4.630;2024-03-02T08:07:52;10.80;67.60
77741;DHT22;66919;51.006;4.630;2024-03-02T08:10:18;10.80;67.90
77741;DHT22;66919;51.006;4.630;2024-03-02T08:12:44;11.00;67.40
77741;DHT22;66919;51.006;4.630;2024-03-02T08:15:10;10.50;68.30
77741;DHT22;66919;51.006;4.630;2024-03-02T08:17:38;10.90;68.00
77741;DHT22;66919;51.006;4.630;2024-03-02T08:20:06;11.30;66.60
77741;DHT22;66919;51.006;4.630;2024-03-02T08:22:33;11.50;65.20
77741;DHT22;66919;51.006;4.630;2024-03-02T08:24:59;11.50;65.00
77741;DHT22;66919;51.006;4.630;2024-03-02T08:27:24;11.90;63.40
77741;DHT22;66919;51.006;4.630;2024-03-02T08:29:50;12.10;63.70
77741;DHT22;66919;51.006;4.630;2024-03-02T08:32:15;12.30;62.50
77741;DHT22;66919;51.006;4.630;2024-03-02T08:34:42;12.40;61.80
77741;DHT22;66919;51.006;4.630;2024-03-02T08:37:08;12.60;61.20
77741;DHT22;66919;51.006;4.630;2024-03-02T08:39:33;12.50;61.30
77741;DHT22;66919;51.006;4.630;2024-03-02T08:41:59;12.90;60.50
77741;DHT22;66919;51.006;4.630;2024-03-02T08:44:25;13.60;58.50
77741;DHT22;66919;51.006;4.630;2024-03-02T08:46:50;13.40;58.40
77741;DHT22;66919;51.006;4.630;2024-03-02T08:49:16;13.40;56.20
77741;DHT22;66919;51.006;4.630;2024-03-02T08:51:41;12.80;57.50
77741;DHT22;66919;51.006;4.630;2024-03-02T08:54:07;12.90;58.90
77741;DHT22;66919;51.006;4.630;2024-03-02T08:56:33;13.40;57.60
77741;DHT22;66919;51.006;4.630;2024-03-02T08:58:58;13.20;57.80
77741;DHT22;66919;51.006;4.630;2024-03-02T09:01:24;12.70;58.80
77741;DHT22;66919;51.006;4.630;2024-03-02T09:03:50;12.70;59.30
77741;DHT22;66919;51.006;4.630;2024-03-02T09:06:15;13.60;57.70
77741;DHT22;66919;51.006;4.630;2024-03-02T09:08:45;14.20;55.60
77741;DHT22;66919;51.006;4.630;2024-03-02T09:11:11;14.30;54.10
77741;DHT22;66919;51.006;4.630;2024-03-02T09:13:38;14.50;53.00
77741;DHT22;66919;51.006;4.630;2024-03-02T09:16:04;14.40;52.40
77741;DHT22;66919;51.006;4.630;2024-03-02T09:18:30;14.60;52.90
77741;DHT22;66919;51.006;4.630;2024-03-02T09:20:56;14.70;51.40
77741;DHT22;66919;51.006;4.630;2024-03-02T09:23:22;14.80;52.10
77741;DHT22;66919;51.006;4.630;2024-03-02T09:25:47;15.50;51.30
77741;DHT22;66919;51.006;4.630;2024-03-02T09:28:15;15.80;49.40
77741;DHT22;66919;51.006;4.630;2024-03-02T09:30:41;15.70;48.70
77741;DHT22;66919;51.006;4.630;2024-03-02T09:33:06;15.30;49.00
77741;DHT22;66919;51.006;4.630;2024-03-02T09:35:32;14.90;49.80
77741;DHT22;66919;51.006;4.630;2024-03-02T09:37:58;14.70;50.50
77741;DHT22;66919;51.006;4.630;2024-03-02T09:40:23;15.00;49.10
77741;DHT22;66919;51.006;4.630;2024-03-02T09:42:49;15.20;48.80
77741;DHT22;66919;51.006;4.630;2024-03-02T09:45:27;15.50;49.30
77741;DHT22;66919;51.006;4.630;2024-03-02T09:47:52;16.00;47.20
77741;DHT22;66919;51.006;4.630;2024-03-02T09:50:18;15.80;46.80
77741;DHT22;66919;51.006;4.630;2024-03-02T09:52:44;15.20;48.60
77741;DHT22;66919;51.006;4.630;2024-03-02T09:55:13;15.40;47.90
77741;DHT22;66919;51.006;4.630;2024-03-02T09:57:39;15.60;48.30
77741;DHT22;66919;51.006;4.630;2024-03-02T10:00:08;16.50;46.00
77741;DHT22;66919;51.006;4.630;2024-03-02T10:02:33;16.80;45.70
77741;DHT22;66919;51.006;4.630;2024-03-02T10:04:59;17.00;45.20
77741;DHT22;66919;51.006;4.630;2024-03-02T10:07:25;17.60;44.60
77741;DHT22;66919;51.006;4.630;2024-03-02T10:09:50;18.20;42.90
77741;DHT22;66919;51.006;4.630;2024-03-02T10:12:17;18.20;43.30
77741;DHT22;66919;51.006;4.630;2024-03-02T10:14:44;17.40;44.00
77741;DHT22;66919;51.006;4.630;2024-03-02T10:17:11;16.60;45.70
77741;DHT22;66919;51.006;4.630;2024-03-02T10:19:38;16.50;47.10
77741;DHT22;66919;51.006;4.630;2024-03-02T10:22:05;16.90;45.80
77741;DHT22;66919;51.006;4.630;2024-03-02T10:24:36;16.60;46.60
77741;DHT22;66919;51.006;4.630;2024-03-02T10:27:08;16.30;48.30
77741;DHT22;66919;51.006;4.630;2024-03-02T10:29:38;16.90;45.80
77741;DHT22;66919;51.006;4.630;2024-03-02T10:32:05;16.90;46.40
77741;DHT22;66919;51.006;4.630;2024-03-02T10:34:32;16.60;46.50
77741;DHT22;66919;51.006;4.630;2024-03-02T10:36:58;16.90;45.80
77741;DHT22;66919;51.006;4.630;2024-03-02T10:39:24;16.60;46.90
77741;DHT22;66919;51.006;4.630;2024-03-02T10:41:52;16.70;46.40
77741;DHT22;66919;51.006;4.630;2024-03-02T10:44:19;15.80;47.90
77741;DHT22;66919;51.006;4.630;2024-03-02T10:46:45;15.30;49.60
77741;DHT22;66919;51.006;4.630;2024-03-02T10:49:11;15.20;51.20
77741;DHT22;66919;51.006;4.630;2024-03-02T10:51:37;16.10;49.20
77741;DHT22;66919;51.006;4.630;2024-03-02T10:54:03;15.90;48.60
77741;DHT22;66919;51.006;4.630;2024-03-02T10:56:31;16.50;47.20
77741;DHT22;66919;51.006;4.630;2024-03-02T11:01:39;16.70;46.10
77741;DHT22;66919;51.006;4.630;2024-03-02T11:04:08;17.20;44.80
77741;DHT22;66919;51.006;4.630;2024-03-02T11:06:35;17.10;46.20
77741;DHT22;66919;51.006;4.630;2024-03-02T11:09:06;18.20;44.00
77741;DHT22;66919;51.006;4.630;2024-03-02T11:11:37;17.20;44.10
77741;DHT22;66919;51.006;4.630;2024-03-02T11:14:09;17.10;45.80
77741;DHT22;66919;51.006;4.630;2024-03-02T11:16:38;17.10;45.60
77741;DHT22;66919;51.006;4.630;2024-03-02T11:19:11;17.90;44.70
77741;DHT22;66919;51.006;4.630;2024-03-02T11:21:37;18.20;43.30
77741;DHT22;66919;51.006;4.630;2024-03-02T11:26:50;17.40;44.30
77741;DHT22;66919;51.006;4.630;2024-03-02T11:32:01;17.40;44.30
77741;DHT22;66919;51.006;4.630;2024-03-02T11:34:31;17.90;43.80
77741;DHT22;66919;51.006;4.630;2024-03-02T11:36:57;17.20;45.10
77741;DHT22;66919;51.006;4.630;2024-03-02T11:39:28;17.20;46.00
77741;DHT22;66919;51.006;4.630;2024-03-02T11:41:57;19.20;41.90
77741;DHT22;66919;51.006;4.630;2024-03-02T11:44:29;19.70;41.00
77741;DHT22;66919;51.006;4.630;2024-03-02T11:47:01;18.10;42.70
77741;DHT22;66919;51.006;4.630;2024-03-02T11:52:12;17.00;46.80
77741;DHT22;66919;51.006;4.630;2024-03-02T11:54:40;17.10;46.20
77741;DHT22;66919;51.006;4.630;2024-03-02T11:57:07;17.00;46.00
77741;DHT22;66919;51.006;4.630;2024-03-02T11:59:34;16.10;47.40
77741;DHT22;66919;51.006;4.630;2024-03-02T12:01:59;15.50;49.40
77741;DHT22;66919;51.006;4.630;2024-03-02T12:04:26;15.70;50.10
77741;DHT22;66919;51.006;4.630;2024-03-02T12:07:01;16.50;47.90
77741;DHT22;66919;51.006;4.630;2024-03-02T12:09:30;17.50;46.50
77741;DHT22;66919;51.006;4.630;2024-03-02T12:12:06;18.50;43.50
77741;DHT22;66919;51.006;4.630;2024-03-02T12:14:33;17.70;44.60
77741;DHT22;66919;51.006;4.630;2024-03-02T12:16:59;16.80;45.50
77741;DHT22;66919;51.006;4.630;2024-03-02T12:19:26;15.80;48.00
77741;DHT22;66919;51.006;4.630;2024-03-02T12:21:52;15.90;48.70
77741;DHT22;66919;51.006;4.630;2024-03-02T12:24:19;15.80;48.90
77741;DHT22;66919;51.006;4.630;2024-03-02T12:26:45;15.60;49.00
77741;DHT22;66919;51.006;4.630;2024-03-02T12:29:10;15.70;49.70
77741;DHT22;66919;51.006;4.630;2024-03-02T12:31:36;16.00;49.10
77741;DHT22;66919;51.006;4.630;2024-03-02T12:34:03;16.10;49.00
77741;DHT22;66919;51.006;4.630;2024-03-02T12:36:29;16.30;47.90
77741;DHT22;66919;51.006;4.630;2024-03-02T12:38:55;16.80;46.70
77741;DHT22;66919;51.006;4.630;2024-03-02T12:41:21;17.00;47.00
77741;DHT22;66919;51.006;4.630;2024-03-02T12:43:46;16.20;47.80
77741;DHT22;66919;51.006;4.630;2024-03-02T12:46:12;15.90;48.80
77741;DHT22;66919;51.006;4.630;2024-03-02T12:48:38;15.60;49.60
77741;DHT22;66919;51.006;4.630;2024-03-02T12:51:06;15.20;50.30
77741;DHT22;66919;51.006;4.630;2024-03-02T12:53:32;14.70;52.50
77741;DHT22;66919;51.006;4.630;2024-03-02T12:55:58;14.10;53.30
77741;DHT22;66919;51.006;4.630;2024-03-02T12:58:24;14.10;53.70
77741;DHT22;66919;51.006;4.630;2024-03-02T13:00:50;14.30;53.30
77741;DHT22;66919;51.006;4.630;2024-03-02T13:03:18;14.50;52.50
77741;DHT22;66919;51.006;4.630;2024-03-02T13:05:49;14.30;53.00
77741;DHT22;66919;51.006;4.630;2024-03-02T13:08:16;14.10;53.40
77741;DHT22;66919;51.006;4.630;2024-03-02T13:10:41;14.30;53.70
77741;DHT22;66919;51.006;4.630;2024-03-02T13:13:07;14.40;53.40
77741;DHT22;66919;51.006;4.630;2024-03-02T13:15:33;14.70;52.60
77741;DHT22;66919;51.006;4.630;2024-03-02T13:18:00;15.10;50.90
77741;DHT22;66919;51.006;4.630;2024-03-02T13:20:33;14.80;52.20
77741;DHT22;66919;51.006;4.630;2024-03-02T13:22:58;14.70;52.80
77741;DHT22;66919;51.006;4.630;2024-03-02T13:25:24;15.60;50.80
77741;DHT22;66919;51.006;4.630;2024-03-02T13:27:50;16.50;48.30
77741;DHT22;66919;51.006;4.630;2024-03-02T13:30:16;16.60;48.20
77741;DHT22;66919;51.006;4.630;2024-03-02T13:32:42;16.10;48.30
77741;DHT22;66919;51.006;4.630;2024-03-02T13:35:07;16.00;49.30
77741;DHT22;66919;51.006;4.630;2024-03-02T13:37:33;15.70;50.10
77741;DHT22;66919;51.006;4.630;2024-03-02T13:39:58;15.20;51.60
77741;DHT22;66919;51.006;4.630;2024-03-02T13:42:24;14.90;52.70
77741;DHT22;66919;51.006;4.630;2024-03-02T13:44:50;14.70;53.10
77741;DHT22;66919;51.006;4.630;2024-03-02T13:47:17;14.30;53.70
77741;DHT22;66919;51.006;4.630;2024-03-02T13:49:43;14.00;54.60
77741;DHT22;66919;51.006;4.630;2024-03-02T13:52:12;13.90;55.30
77741;DHT22;66919;51.006;4.630;2024-03-02T13:54:43;13.80;56.00
77741;DHT22;66919;51.006;4.630;2024-03-02T13:57:10;13.60;56.50
77741;DHT22;66919;51.006;4.630;2024-03-02T13:59:36;13.70;56.10
77741;DHT22;66919;51.006;4.630;2024-03-02T14:02:04;13.90;56.20
77741;DHT22;66919;51.006;4.630;2024-03-02T14:04:39;14.00;55.60
77741;DHT22;66919;51.006;4.630;2024-03-02T14:07:04;14.00;54.60
77741;DHT22;66919;51.006;4.630;2024-03-02T14:09:33;14.00;54.70
77741;DHT22;66919;51.006;4.630;2024-03-02T14:11:59;14.10;55.50
77741;DHT22;66919;51.006;4.630;2024-03-02T14:14:27;14.10;54.80
77741;DHT22;66919;51.006;4.630;2024-03-02T14:16:54;14.00;55.10
77741;DHT22;66919;51.006;4.630;2024-03-02T14:19:21;14.00;55.70
77741;DHT22;66919;51.006;4.630;2024-03-02T14:21:47;14.10;55.00
77741;DHT22;66919;51.006;4.630;2024-03-02T14:24:13;14.10;54.90
77741;DHT22;66919;51.006;4.630;2024-03-02T14:26:39;14.30;55.30
77741;DHT22;66919;51.006;4.630;2024-03-02T14:29:05;14.30;54.40
77741;DHT22;66919;51.006;4.630;2024-03-02T14:31:31;13.90;55.80
77741;DHT22;66919;51.006;4.630;2024-03-02T14:33:57;13.90;55.70
77741;DHT22;66919;51.006;4.630;2024-03-02T14:36:23;13.90;56.00
77741;DHT22;66919;51.006;4.630;2024-03-02T14:38:49;13.80;56.10
77741;DHT22;66919;51.006;4.630;2024-03-02T14:41:15;13.70;56.20
77741;DHT22;66919;51.006;4.630;2024-03-02T14:43:41;13.60;57.30
77741;DHT22;66919;51.006;4.630;2024-03-02T14:46:07;13.60;56.90
77741;DHT22;66919;51.006;4.630;2024-03-02T14:48:36;13.70;57.30
77741;DHT22;66919;51.006;4.630;2024-03-02T14:51:02;13.70;56.30
77741;DHT22;66919;51.006;4.630;2024-03-02T14:53:28;13.80;56.60
77741;DHT22;66919;51.006;4.630;2024-03-02T14:55:54;13.80;57.00
77741;DHT22;66919;51.006;4.630;2024-03-02T14:58:19;13.80;56.90
77741;DHT22;66919;51.006;4.630;2024-03-02T15:00:45;13.80;56.50
77741;DHT22;66919;51.006;4.630;2024-03-02T15:03:10;13.80;57.00
77741;DHT22;66919;51.006;4.630;2024-03-02T15:05:37;13.60;57.00
77741;DHT22;66919;51.006;4.630;2024-03-02T15:08:04;13.70;57.00
77741;DHT22;66919;51.006;4.630;2024-03-02T15:10:30;13.80;56.90
77741;DHT22;66919;51.006;4.630;2024-03-02T15:12:57;13.70;57.10
77741;DHT22;66919;51.006;4.630;2024-03-02T15:15:23;13.50;57.00
77741;DHT22;66919;51.006;4.630;2024-03-02T15:17:49;13.50;57.10
77741;DHT22;66919;51.006;4.630;2024-03-02T15:20:15;13.40;59.10
77741;DHT22;66919;51.006;4.630;2024-03-02T15:22:41;13.50;59.50
77741;DHT22;66919;51.006;4.630;2024-03-02T15:25:07;13.40;60.60
77741;DHT22;66919;51.006;4.630;2024-03-02T15:27:32;13.30;59.50
77741;DHT22;66919;51.006;4.630;2024-03-02T15:29:58;13.30;60.10
77741;DHT22;66919;51.006;4.630;2024-03-02T15:32:24;13.10;60.40
77741;DHT22;66919;51.006;4.630;2024-03-02T15:34:52;13.00;61.30
77741;DHT22;66919;51.006;4.630;2024-03-02T15:37:19;12.90;62.10
77741;DHT22;66919;51.006;4.630;2024-03-02T15:39:44;12.90;62.90
77741;DHT22;66919;51.006;4.630;2024-03-02T15:42:10;12.80;63.10
77741;DHT22;66919;51.006;4.630;2024-03-02T15:44:36;12.80;63.60
77741;DHT22;66919;51.006;4.630;2024-03-02T15:47:02;12.90;63.70